createdAt,value
2022-09-26T00:01:37.920Z,95582.30
2022-09-26T00:04:26.026Z,95579.73
2022-09-26T00:06:57.290Z,95574.13
2022-09-26T00:09:26.881Z,95575.52
2022-09-26T00:11:54.890Z,95580.27
2022-09-26T00:14:26.501Z,95580.11
2022-09-26T00:16:55.116Z,95582.70
2022-09-26T00:19:23.499Z,95581.15
2022-09-26T00:21:51.863Z,95578.13
2022-09-26T00:24:20.167Z,95576.44
2022-09-26T00:26:48.111Z,95570.96
2022-09-26T00:29:16.411Z,95570.69
2022-09-26T00:31:47.582Z,95572.11
2022-09-26T00:34:18.252Z,95571.02
2022-09-26T00:36:46.169Z,95572.62
2022-09-26T00:39:16.355Z,95573.13
2022-09-26T00:41:45.470Z,95573.40
2022-09-26T00:44:38.543Z,95574.13
2022-09-26T00:47:14.435Z,95571.39
2022-09-26T00:49:44.722Z,95567.63
2022-09-26T00:52:20.404Z,95565.98
2022-09-26T00:54:52.008Z,95566.00
2022-09-26T00:57:25.212Z,95567.75
2022-09-26T00:59:58.340Z,95566.33
2022-09-26T01:02:29.064Z,95561.85
2022-09-26T01:04:59.188Z,95559.30
2022-09-26T01:07:29.808Z,95557.83
2022-09-26T01:09:58.761Z,95558.14
2022-09-26T01:12:26.772Z,95556.57
2022-09-26T01:14:57.130Z,95559.38
2022-09-26T01:17:26.413Z,95559.14
2022-09-26T01:20:10.242Z,95561.08
2022-09-26T01:23:03.073Z,95556.92
2022-09-26T01:26:03.286Z,95557.56
2022-09-26T01:29:18.972Z,95558.98
2022-09-26T01:32:27.984Z,95559.80
2022-09-26T01:35:02.323Z,95544.98
2022-09-26T01:37:51.595Z,95544.48
2022-09-26T01:40:50.490Z,95542.70
2022-09-26T01:43:20.191Z,95546.98
2022-09-26T01:45:59.522Z,95549.61
2022-09-26T01:48:53.061Z,95550.04
2022-09-26T01:51:27.741Z,95539.05
2022-09-26T01:54:03.156Z,95533.00
2022-09-26T01:56:36.966Z,95522.19
2022-09-26T01:59:11.392Z,95521.12
2022-09-26T02:02:30.401Z,95520.86
2022-09-26T02:05:06.077Z,95514.98
2022-09-26T02:07:41.525Z,95509.23
2022-09-26T02:10:22.292Z,95501.75
2022-09-26T02:12:58.000Z,95500.73
2022-09-26T02:15:27.661Z,95501.05
2022-09-26T02:18:06.437Z,95503.89
2022-09-26T02:20:38.265Z,95511.41
2022-09-26T02:23:06.549Z,95517.30
2022-09-26T02:25:34.588Z,95515.16
2022-09-26T02:28:05.042Z,95510.80
2022-09-26T02:30:33.122Z,95504.90
2022-09-26T02:33:02.255Z,95501.33
2022-09-26T02:35:50.554Z,95506.08
2022-09-26T02:38:18.562Z,95511.27
2022-09-26T02:41:07.048Z,95509.85
2022-09-26T02:43:53.656Z,95507.39
2022-09-26T02:46:43.883Z,95500.83
2022-09-26T02:49:21.794Z,95500.23
2022-09-26T02:51:54.383Z,95493.88
2022-09-26T02:54:33.794Z,95491.82
2022-09-26T02:57:13.218Z,95485.77
2022-09-26T03:00:01.201Z,95482.88
2022-09-26T03:02:55.206Z,95480.89
2022-09-26T03:05:27.838Z,95480.27
2022-09-26T03:08:03.171Z,95477.27
2022-09-26T03:10:33.066Z,95474.73
2022-09-26T03:13:08.928Z,95474.30
2022-09-26T03:15:40.931Z,95482.81
2022-09-26T03:18:14.995Z,95478.55
2022-09-26T03:20:44.807Z,95467.78
2022-09-26T03:23:13.597Z,95458.11
2022-09-26T03:25:42.984Z,95462.47
2022-09-26T03:28:12.416Z,95460.92
2022-09-26T03:30:40.618Z,95457.61
2022-09-26T03:33:27.544Z,95449.11
2022-09-26T03:35:56.926Z,95442.96
2022-09-26T03:38:24.903Z,95436.52
2022-09-26T03:41:02.581Z,95437.09
2022-09-26T03:43:50.556Z,95432.58
2022-09-26T03:46:18.942Z,95425.60
2022-09-26T03:48:47.822Z,95421.77
2022-09-26T03:51:21.422Z,95412.95
2022-09-26T03:53:50.469Z,95408.50
2022-09-26T03:56:20.898Z,95402.23
2022-09-26T03:58:51.596Z,95406.16
2022-09-26T04:01:22.643Z,95409.57
2022-09-26T04:03:51.400Z,95411.88
2022-09-26T04:06:21.832Z,95416.96
2022-09-26T04:08:52.681Z,95417.77
2022-09-26T04:11:23.118Z,95415.66
2022-09-26T04:13:53.789Z,95417.92
2022-09-26T04:16:24.700Z,95423.60
2022-09-26T04:18:57.991Z,95420.86
2022-09-26T04:21:27.441Z,95414.21
2022-09-26T04:23:56.263Z,95408.47
2022-09-26T04:26:24.867Z,95406.77
2022-09-26T04:28:55.982Z,95406.79
2022-09-26T04:31:27.917Z,95398.66
2022-09-26T04:34:01.301Z,95391.17
2022-09-26T04:36:29.113Z,95391.02
2022-09-26T04:39:00.767Z,95395.77
2022-09-26T04:41:31.651Z,95395.45
2022-09-26T04:44:02.077Z,95399.16
2022-09-26T04:46:31.591Z,95397.08
2022-09-26T04:49:01.807Z,95392.23
2022-09-26T04:51:31.788Z,95395.33
2022-09-26T04:54:00.393Z,95396.77
2022-09-26T04:56:30.730Z,95391.05
2022-09-26T04:59:00.261Z,95389.33
2022-09-26T05:01:34.063Z,95392.41
2022-09-26T05:04:10.107Z,95390.40
2022-09-26T05:06:39.674Z,95386.11
2022-09-26T05:09:10.641Z,95376.83
2022-09-26T05:11:58.801Z,95367.05
2022-09-26T05:14:28.081Z,95364.16
2022-09-26T05:16:57.917Z,95366.70
2022-09-26T05:19:30.913Z,95364.20
2022-09-26T05:22:20.856Z,95361.25
2022-09-26T05:25:07.449Z,95358.85
2022-09-26T05:27:36.806Z,95358.80
2022-09-26T05:30:05.260Z,95358.60
2022-09-26T05:32:34.313Z,95353.12
2022-09-26T05:35:05.339Z,95349.16
2022-09-26T05:37:41.364Z,95347.05
2022-09-26T05:40:31.923Z,95347.59
2022-09-26T05:43:02.781Z,95349.55
2022-09-26T05:45:31.863Z,95353.31
2022-09-26T05:48:02.005Z,95346.05
2022-09-26T05:50:30.199Z,95343.61
2022-09-26T05:52:59.407Z,95342.16
2022-09-26T05:55:29.462Z,95338.07
2022-09-26T05:58:06.412Z,95340.02
2022-09-26T06:00:52.790Z,95344.30
2022-09-26T06:03:21.030Z,95345.88
2022-09-26T06:06:11.374Z,95344.63
2022-09-26T06:08:40.316Z,95345.83
2022-09-26T06:11:33.035Z,95339.69
2022-09-26T06:14:03.256Z,95337.38
2022-09-26T06:16:33.130Z,95335.17
2022-09-26T06:19:02.867Z,95332.90
2022-09-26T06:21:31.188Z,95330.87
2022-09-26T06:24:06.614Z,95338.08
2022-09-26T06:26:35.901Z,95340.85
2022-09-26T06:29:04.758Z,95345.02
2022-09-26T06:31:36.071Z,95339.10
2022-09-26T06:34:14.964Z,95332.70
2022-09-26T06:36:51.443Z,95335.89
2022-09-26T06:39:19.680Z,95336.27
2022-09-26T06:41:48.602Z,95341.66
2022-09-26T06:44:30.525Z,95348.42
2022-09-26T06:47:18.130Z,95349.83
2022-09-26T06:49:46.594Z,95352.66
2022-09-26T06:52:26.733Z,95350.94
2022-09-26T06:54:55.529Z,95348.06
2022-09-26T06:57:23.567Z,95343.83
2022-09-26T06:59:52.446Z,95341.29
2022-09-26T07:02:27.722Z,95334.23
2022-09-26T07:05:20.680Z,95327.63
2022-09-26T07:07:55.159Z,95327.48
2022-09-26T07:10:30.369Z,95326.96
2022-09-26T07:13:07.271Z,95325.77
2022-09-26T07:15:37.176Z,95333.27
2022-09-26T07:18:18.753Z,95331.05
2022-09-26T07:21:10.928Z,95322.41
2022-09-26T07:23:50.648Z,95326.67
2022-09-26T07:26:21.097Z,95334.83
2022-09-26T07:28:54.331Z,95332.80
2022-09-26T07:31:43.310Z,95323.89
2022-09-26T07:34:18.829Z,95320.73
2022-09-26T07:36:47.660Z,95321.69
2022-09-26T07:39:16.446Z,95318.95
2022-09-26T07:41:46.947Z,95307.45
2022-09-26T07:47:22.364Z,95301.65
2022-09-26T07:50:09.473Z,95299.58
2022-09-26T07:52:57.845Z,95294.20
2022-09-26T07:55:27.436Z,95290.14
2022-09-26T07:58:13.659Z,95292.74
2022-09-26T08:01:07.458Z,95289.73
2022-09-26T08:03:54.520Z,95289.47
2022-09-26T08:06:37.129Z,95290.60
2022-09-26T08:09:05.430Z,95288.34
2022-09-26T08:12:08.563Z,95281.63
2022-09-26T08:14:59.635Z,95272.24
2022-09-26T08:17:38.345Z,95266.35
2022-09-26T08:20:07.232Z,95275.08
2022-09-26T08:22:35.481Z,95274.80
2022-09-26T08:25:06.649Z,95273.95
2022-09-26T08:28:13.061Z,95270.06
2022-09-26T08:30:42.410Z,95268.32
2022-09-26T08:33:12.636Z,95260.98
2022-09-26T08:35:41.129Z,95264.64
2022-09-26T08:38:32.788Z,95263.73
2022-09-26T08:41:44.485Z,95259.25
2022-09-26T08:44:57.336Z,95254.87
2022-09-26T08:47:54.945Z,95253.30
2022-09-26T08:50:52.698Z,95253.73
2022-09-26T08:53:29.700Z,95252.67
2022-09-26T08:56:01.279Z,95258.29
2022-09-26T08:58:43.013Z,95246.45
2022-09-26T09:01:23.568Z,95242.19
2022-09-26T09:04:47.233Z,95232.65
2022-09-26T09:07:26.707Z,95225.42
2022-09-26T09:10:02.042Z,95223.73
2022-09-26T09:12:52.285Z,95215.86
2022-09-26T09:16:08.385Z,95221.60
2022-09-26T09:19:15.720Z,95232.17
2022-09-26T09:22:15.588Z,95225.15
2022-09-26T09:25:10.377Z,95224.49
2022-09-26T09:28:02.517Z,95218.80
2022-09-26T09:30:50.862Z,95220.23
2022-09-26T09:33:49.665Z,95219.05
2022-09-26T09:36:51.639Z,95205.88
2022-09-26T09:39:36.295Z,95206.66
2022-09-26T09:42:51.441Z,95208.23
2022-09-26T09:45:31.056Z,95206.41
2022-09-26T09:47:59.141Z,95204.70
2022-09-26T09:50:58.861Z,95205.42
2022-09-26T09:53:41.779Z,95211.14
2022-09-26T09:56:26.000Z,95213.70
2022-09-26T09:59:15.461Z,95217.46
2022-09-26T10:02:37.587Z,95211.35
2022-09-26T10:05:29.004Z,95206.41
2022-09-26T10:07:59.317Z,95203.73
2022-09-26T10:11:11.656Z,95206.61
2022-09-26T10:14:21.296Z,95219.45
2022-09-26T10:17:10.882Z,95220.28
2022-09-26T10:19:46.645Z,95226.88
2022-09-26T10:22:18.782Z,95236.09
2022-09-26T10:24:47.933Z,95237.75
2022-09-26T10:27:25.812Z,95230.96
2022-09-26T10:30:02.083Z,95234.96
2022-09-26T10:32:30.283Z,95244.06
2022-09-26T10:35:20.494Z,95241.81
2022-09-26T10:38:01.924Z,95239.02
2022-09-26T10:40:47.208Z,95242.29
2022-09-26T10:43:30.789Z,95249.55
2022-09-26T10:46:17.466Z,95261.45
2022-09-26T10:49:17.233Z,95269.28
2022-09-26T10:52:18.876Z,95273.99
2022-09-26T10:54:57.266Z,95277.91
2022-09-26T10:57:33.695Z,95283.59
2022-09-26T11:00:06.464Z,95285.84
2022-09-26T11:02:36.713Z,95279.54
2022-09-26T11:05:24.897Z,95271.86
2022-09-26T11:08:14.154Z,95274.60
2022-09-26T11:11:14.358Z,95280.95
2022-09-26T11:13:59.125Z,95288.84
2022-09-26T11:16:29.384Z,95292.84
2022-09-26T11:19:26.932Z,95287.17
2022-09-26T11:22:19.960Z,95282.11
2022-09-26T11:25:03.588Z,95280.03
2022-09-26T11:27:46.213Z,95272.02
2022-09-26T11:30:23.085Z,95275.11
2022-09-26T11:33:05.608Z,95280.80
2022-09-26T11:35:53.421Z,95292.02
2022-09-26T11:39:11.021Z,95304.59
2022-09-26T11:42:01.556Z,95315.97
2022-09-26T11:44:51.929Z,95327.59
2022-09-26T11:47:38.606Z,95320.04
2022-09-26T11:50:25.499Z,95301.55
2022-09-26T11:53:52.862Z,95289.48
2022-09-26T11:56:29.864Z,95279.80
2022-09-26T11:59:28.544Z,95276.52
2022-09-26T12:02:24.471Z,95262.30
2022-09-26T12:05:17.209Z,95253.42
2022-09-26T12:07:55.549Z,95256.98
2022-09-26T12:11:10.025Z,95250.58
2022-09-26T12:13:59.397Z,95255.10
2022-09-26T12:16:45.844Z,95261.39
2022-09-26T12:19:27.842Z,95260.00
2022-09-26T12:22:14.286Z,95253.10
2022-09-26T12:24:45.698Z,95253.94
2022-09-26T12:27:26.299Z,95249.54
2022-09-26T12:30:10.794Z,95251.97
2022-09-26T12:33:01.567Z,95250.69
2022-09-26T12:35:45.444Z,95246.27
2022-09-26T12:38:32.479Z,95250.06
2022-09-26T12:41:14.326Z,95245.73
2022-09-26T12:43:51.226Z,95229.27
2022-09-26T12:47:06.877Z,95217.59
2022-09-26T12:49:49.647Z,95214.84
2022-09-26T12:52:44.631Z,95216.84
2022-09-26T12:55:37.566Z,95218.20
2022-09-26T12:58:33.692Z,95220.56
2022-09-26T13:01:23.891Z,95210.10
2022-09-26T13:04:13.501Z,95196.77
2022-09-26T13:07:07.579Z,95181.20
2022-09-26T13:09:55.161Z,95176.62
2022-09-26T13:12:46.991Z,95175.52
2022-09-26T13:15:32.435Z,95177.07
2022-09-26T13:18:12.924Z,95179.59
2022-09-26T13:20:45.775Z,95184.45
2022-09-26T13:23:27.569Z,95189.00
2022-09-26T13:26:21.937Z,95194.29
2022-09-26T13:29:16.726Z,95199.04
2022-09-26T13:32:11.973Z,95199.60
2022-09-26T13:34:51.380Z,95196.90
2022-09-26T13:37:42.229Z,95192.58
2022-09-26T13:40:43.064Z,95191.08
2022-09-26T13:43:34.945Z,95189.27
2022-09-26T13:46:34.737Z,95182.38
2022-09-26T13:49:21.779Z,95176.55
2022-09-26T13:51:49.990Z,95176.05
2022-09-26T13:54:44.202Z,95168.25
2022-09-26T13:57:39.803Z,95164.16
2022-09-26T14:00:26.630Z,95157.91
2022-09-26T14:03:13.046Z,95155.36
2022-09-26T14:05:46.726Z,95155.14
2022-09-26T14:08:45.358Z,95154.73
2022-09-26T14:11:19.310Z,95147.26
2022-09-26T14:14:08.236Z,95141.77
2022-09-26T14:16:37.008Z,95143.45
2022-09-26T14:19:46.895Z,95151.50
2022-09-26T14:22:19.136Z,95149.79
2022-09-26T14:24:51.859Z,95148.84
2022-09-26T14:27:37.993Z,95149.26
2022-09-26T14:30:27.261Z,95148.67
2022-09-26T14:33:02.519Z,95147.73
2022-09-26T14:35:33.783Z,95147.42
2022-09-26T14:38:12.985Z,95141.06
2022-09-26T14:40:54.825Z,95131.50
2022-09-26T14:43:25.018Z,95130.39
2022-09-26T14:46:02.878Z,95125.11
2022-09-26T14:48:38.843Z,95123.70
2022-09-26T14:51:15.969Z,95127.52
2022-09-26T14:53:52.975Z,95125.38
2022-09-26T14:56:29.494Z,95120.43
2022-09-26T14:59:15.982Z,95117.14
2022-09-26T15:01:45.377Z,95115.55
2022-09-26T15:04:30.095Z,95112.27
2022-09-26T15:07:03.015Z,95112.34
2022-09-26T15:09:40.379Z,95109.91
2022-09-26T15:12:23.785Z,95107.30
2022-09-26T15:15:19.400Z,95111.71
2022-09-26T15:17:53.896Z,95116.91
2022-09-26T15:20:25.378Z,95117.86
2022-09-26T15:22:57.390Z,95116.54
2022-09-26T15:25:32.099Z,95116.33
2022-09-26T15:28:01.463Z,95112.27
2022-09-26T15:30:37.462Z,95111.90
2022-09-26T15:33:07.503Z,95113.50
2022-09-26T15:35:35.768Z,95116.34
2022-09-26T15:38:11.814Z,95120.59
2022-09-26T15:40:40.002Z,95114.97
2022-09-26T15:43:20.453Z,95111.79
2022-09-26T15:45:58.900Z,95101.70
2022-09-26T15:48:29.775Z,95098.58
2022-09-26T15:51:03.861Z,95098.72
2022-09-26T15:53:40.069Z,95100.95
2022-09-26T15:56:13.802Z,95098.03
2022-09-26T15:59:00.935Z,95103.11
2022-09-26T16:01:30.229Z,95112.52
2022-09-26T16:04:14.939Z,95119.23
2022-09-26T16:07:12.112Z,95119.58
2022-09-26T16:09:43.323Z,95116.96
2022-09-26T16:12:29.022Z,95122.97
2022-09-26T16:15:06.130Z,95120.63
2022-09-26T16:17:37.581Z,95122.10
2022-09-26T16:20:11.608Z,95136.57
2022-09-26T16:22:51.244Z,95144.20
2022-09-26T16:25:20.484Z,95147.57
2022-09-26T16:27:58.528Z,95139.70
2022-09-26T16:30:33.726Z,95134.63
2022-09-26T16:33:08.085Z,95136.28
2022-09-26T16:35:43.781Z,95132.09
2022-09-26T16:38:31.182Z,95131.53
2022-09-26T16:41:10.975Z,95130.84
2022-09-26T16:43:39.930Z,95133.70
2022-09-26T16:46:14.813Z,95132.17
2022-09-26T16:48:56.257Z,95135.02
2022-09-26T16:51:38.879Z,95137.38
2022-09-26T16:54:07.674Z,95141.33
2022-09-26T16:56:41.417Z,95144.13
2022-09-26T16:59:17.752Z,95140.66
2022-09-26T17:01:56.668Z,95131.25
2022-09-26T17:04:34.763Z,95123.23
2022-09-26T17:07:20.763Z,95122.61
2022-09-26T17:09:48.756Z,95121.27
2022-09-26T17:12:22.043Z,95118.98
2022-09-26T17:14:52.066Z,95111.63
2022-09-26T17:17:24.016Z,95102.66
2022-09-26T17:19:59.151Z,95116.68
2022-09-26T17:22:28.674Z,95122.42
2022-09-26T17:24:57.066Z,95116.84
2022-09-26T17:27:30.690Z,95114.30
2022-09-26T17:30:01.557Z,95115.49
2022-09-26T17:32:37.030Z,95115.77
2022-09-26T17:35:13.454Z,95115.98
2022-09-26T17:37:41.580Z,95110.36
2022-09-26T17:40:17.139Z,95106.05
2022-09-26T17:42:48.673Z,95104.53
2022-09-26T17:45:16.693Z,95110.72
2022-09-26T17:47:45.371Z,95113.85
2022-09-26T17:50:40.129Z,95107.95
2022-09-26T17:53:12.471Z,95110.83
2022-09-26T17:55:40.496Z,95110.21
2022-09-26T17:58:10.539Z,95103.92
2022-09-26T18:00:40.436Z,95097.70
2022-09-26T18:03:18.937Z,95099.39
2022-09-26T18:05:47.456Z,95114.89
2022-09-26T18:08:21.659Z,95112.42
2022-09-26T18:10:53.127Z,95107.30
2022-09-26T18:13:26.215Z,95097.58
2022-09-26T18:15:56.107Z,95089.94
2022-09-26T18:18:27.931Z,95088.05
2022-09-26T18:20:57.334Z,95088.79
2022-09-26T18:23:39.384Z,95083.84
2022-09-26T18:26:09.764Z,95074.04
2022-09-26T18:28:38.943Z,95067.22
2022-09-26T18:31:11.504Z,95065.00
2022-09-26T18:33:39.670Z,95057.27
2022-09-26T18:36:12.762Z,95053.01
2022-09-26T18:38:40.931Z,95050.29
2022-09-26T18:41:10.696Z,95045.24
2022-09-26T18:43:42.524Z,95044.02
2022-09-26T18:46:16.939Z,95045.85
2022-09-26T18:48:46.467Z,95042.41
2022-09-26T18:51:14.817Z,95039.19
2022-09-26T18:53:43.279Z,95040.91
2022-09-26T18:56:30.691Z,95043.48
2022-09-26T18:58:58.967Z,95047.01
2022-09-26T19:01:39.454Z,95043.70
2022-09-26T19:04:13.683Z,95039.95
2022-09-26T19:06:59.431Z,95035.65
2022-09-26T19:09:32.877Z,95035.19
2022-09-26T19:12:02.312Z,95038.33
2022-09-26T19:14:31.670Z,95047.88
2022-09-26T19:16:59.920Z,95050.71
2022-09-26T19:19:32.624Z,95053.88
2022-09-26T19:22:10.870Z,95054.92
2022-09-26T19:25:00.551Z,95061.27
2022-09-26T19:28:30.704Z,95069.48
2022-09-26T19:32:23.383Z,95059.88
2022-09-26T19:36:15.223Z,95036.28
2022-09-26T19:40:04.108Z,95044.14
2022-09-26T19:43:52.895Z,95061.20
2022-09-26T19:47:41.607Z,95060.61
2022-09-26T19:51:13.942Z,95052.98
2022-09-26T19:55:02.461Z,95050.48
2022-09-26T19:58:52.578Z,95058.87
2022-09-26T20:02:40.460Z,95060.83
2022-09-26T20:05:57.946Z,95054.68
2022-09-26T20:09:47.752Z,95059.09
2022-09-26T20:13:36.622Z,95053.41
2022-09-26T20:17:25.921Z,95046.70
2022-09-26T20:21:21.391Z,95046.67
2022-09-26T20:25:10.537Z,95048.61
2022-09-26T20:28:59.864Z,95049.50
2022-09-26T20:32:49.063Z,95048.15
2022-09-26T20:36:40.658Z,95047.80
2022-09-26T20:40:29.701Z,95048.45
2022-09-26T20:44:17.920Z,95048.56
2022-09-26T20:47:28.003Z,95044.35
2022-09-26T20:51:25.909Z,95046.42
2022-09-26T20:55:15.038Z,95047.73
2022-09-26T20:59:04.543Z,95048.67
2022-09-26T21:03:05.476Z,95050.06
2022-09-26T21:06:54.462Z,95057.08
2022-09-26T21:10:43.399Z,95060.18
2022-09-26T21:14:32.285Z,95060.21
2022-09-26T21:18:30.342Z,95057.77
2022-09-26T21:22:22.434Z,95053.21
2022-09-26T21:26:17.499Z,95053.62
2022-09-26T21:30:06.403Z,95052.47
2022-09-26T21:33:58.353Z,95049.91
2022-09-26T21:37:47.195Z,95049.20
2022-09-26T21:41:36.106Z,95049.98
2022-09-26T21:45:27.402Z,95050.46
2022-09-26T21:49:16.840Z,95043.72
2022-09-26T21:53:08.861Z,95037.40
2022-09-26T21:56:57.880Z,95029.50
2022-09-26T22:00:46.995Z,95029.96
2022-09-26T22:04:35.907Z,95028.95
2022-09-26T22:08:25.004Z,95024.09
2022-09-26T22:12:13.591Z,95018.42
2022-09-26T22:16:02.612Z,95016.55
2022-09-26T22:19:51.600Z,95014.65
2022-09-26T22:23:40.472Z,95008.26
2022-09-26T22:27:29.400Z,95004.77
2022-09-26T22:31:18.329Z,95002.52
2022-09-26T22:35:07.254Z,94994.69
2022-09-26T22:38:56.198Z,94977.68
2022-09-26T22:42:45.204Z,94966.46
2022-09-26T22:46:34.166Z,94961.63
2022-09-26T22:50:23.107Z,94956.14
2022-09-26T22:54:11.603Z,94950.52
2022-09-26T22:57:24.751Z,94950.17
2022-09-26T23:01:13.527Z,94945.65
2022-09-26T23:05:08.622Z,94934.94
2022-09-26T23:08:57.296Z,94926.91
2022-09-26T23:12:46.156Z,94917.04
2022-09-26T23:16:35.144Z,94909.62
2022-09-26T23:20:24.110Z,94900.09
2022-09-26T23:24:12.752Z,94889.16
2022-09-26T23:28:01.704Z,94880.29
2022-09-26T23:31:50.559Z,94882.73
2022-09-26T23:35:39.571Z,94887.20
2022-09-26T23:39:28.517Z,94891.12
2022-09-26T23:43:17.353Z,94883.72
2022-09-26T23:47:06.275Z,94880.43
2022-09-26T23:50:55.099Z,94883.94
2022-09-26T23:54:44.040Z,94887.14
2022-09-26T23:58:32.936Z,94879.20
